sensor_id;sensor_type;location;lat;lon;timestamp;P1;durP1;ratioP1;P2;durP2;ratioP2
26820;SDS011;37186;51.394;5.454;2023-07-31T00:00:45;2.95;;;2.85;;
26820;SDS011;37186;51.394;5.454;2023-07-31T00:03:46;3.10;;;3.00;;
26820;SDS011;37186;51.394;5.454;2023-07-31T00:06:47;3.00;;;2.90;;
26820;SDS011;37186;51.394;5.454;2023-07-31T00:09:47;3.00;;;2.90;;
26820;SDS011;37186;51.394;5.454;2023-07-31T00:12:48;3.20;;;3.10;;
26820;SDS011;37186;51.394;5.454;2023-07-31T00:15:48;2.88;;;2.80;;
26820;SDS011;37186;51.394;5.454;2023-07-31T00:18:49;3.03;;;2.92;;
26820;SDS011;37186;51.394;5.454;2023-07-31T00:21:50;3.08;;;2.97;;
26820;SDS011;37186;51.394;5.454;2023-07-31T00:24:50;3.20;;;3.10;;
26820;SDS011;37186;51.394;5.454;2023-07-31T00:27:51;3.08;;;2.97;;
26820;SDS011;37186;51.394;5.454;2023-07-31T00:30:52;2.75;;;2.70;;
26820;SDS011;37186;51.394;5.454;2023-07-31T00:33:52;2.97;;;2.88;;
26820;SDS011;37186;51.394;5.454;2023-07-31T00:36:53;2.90;;;2.80;;
26820;SDS011;37186;51.394;5.454;2023-07-31T00:39:53;3.00;;;2.90;;
26820;SDS011;37186;51.394;5.454;2023-07-31T00:42:54;2.95;;;2.85;;
26820;SDS011;37186;51.394;5.454;2023-07-31T00:45:54;2.65;;;2.65;;
26820;SDS011;37186;51.394;5.454;2023-07-31T00:48:55;2.97;;;2.88;;
26820;SDS011;37186;51.394;5.454;2023-07-31T00:51:56;3.00;;;2.90;;
26820;SDS011;37186;51.394;5.454;2023-07-31T00:54:58;2.90;;;2.80;;
26820;SDS011;37186;51.394;5.454;2023-07-31T00:57:59;2.80;;;2.72;;
26820;SDS011;37186;51.394;5.454;2023-07-31T01:00:59;2.90;;;2.80;;
26820;SDS011;37186;51.394;5.454;2023-07-31T01:04:00;2.97;;;2.88;;
26820;SDS011;37186;51.394;5.454;2023-07-31T01:10:26;2.97;;;2.88;;
26820;SDS011;37186;51.394;5.454;2023-07-31T01:13:29;3.08;;;2.97;;
26820;SDS011;37186;51.394;5.454;2023-07-31T01:16:30;2.90;;;2.80;;
26820;SDS011;37186;51.394;5.454;2023-07-31T01:19:30;2.80;;;2.70;;
26820;SDS011;37186;51.394;5.454;2023-07-31T01:26:03;3.10;;;3.00;;
26820;SDS011;37186;51.394;5.454;2023-07-31T01:32:31;3.20;;;3.10;;
26820;SDS011;37186;51.394;5.454;2023-07-31T01:35:36;3.03;;;2.92;;
26820;SDS011;37186;51.394;5.454;2023-07-31T01:38:37;2.90;;;2.80;;
26820;SDS011;37186;51.394;5.454;2023-07-31T01:41:38;3.10;;;3.00;;
26820;SDS011;37186;51.394;5.454;2023-07-31T01:44:38;3.15;;;3.05;;
26820;SDS011;37186;51.394;5.454;2023-07-31T01:47:39;3.00;;;2.90;;
26820;SDS011;37186;51.394;5.454;2023-07-31T01:50:39;3.08;;;2.97;;
26820;SDS011;37186;51.394;5.454;2023-07-31T01:53:40;3.05;;;2.95;;
26820;SDS011;37186;51.394;5.454;2023-07-31T01:56:40;2.92;;;2.83;;
26820;SDS011;37186;51.394;5.454;2023-07-31T01:59:41;3.10;;;3.00;;
26820;SDS011;37186;51.394;5.454;2023-07-31T02:02:41;3.20;;;3.10;;
26820;SDS011;37186;51.394;5.454;2023-07-31T02:05:48;3.35;;;3.25;;
26820;SDS011;37186;51.394;5.454;2023-07-31T02:08:49;3.10;;;3.00;;
26820;SDS011;37186;51.394;5.454;2023-07-31T02:11:50;3.10;;;3.00;;
26820;SDS011;37186;51.394;5.454;2023-07-31T02:14:50;3.10;;;3.00;;
26820;SDS011;37186;51.394;5.454;2023-07-31T02:17:51;2.92;;;2.83;;
26820;SDS011;37186;51.394;5.454;2023-07-31T02:20:52;3.40;;;3.30;;
26820;SDS011;37186;51.394;5.454;2023-07-31T02:23:52;3.10;;;3.00;;
26820;SDS011;37186;51.394;5.454;2023-07-31T02:26:53;2.92;;;2.83;;
26820;SDS011;37186;51.394;5.454;2023-07-31T02:29:53;2.95;;;2.85;;
26820;SDS011;37186;51.394;5.454;2023-07-31T02:32:55;3.00;;;2.90;;
26820;SDS011;37186;51.394;5.454;2023-07-31T02:35:55;2.85;;;2.75;;
26820;SDS011;37186;51.394;5.454;2023-07-31T02:38:56;2.75;;;2.70;;
26820;SDS011;37186;51.394;5.454;2023-07-31T02:41:56;2.92;;;2.83;;
26820;SDS011;37186;51.394;5.454;2023-07-31T02:44:57;2.85;;;2.75;;
26820;SDS011;37186;51.394;5.454;2023-07-31T02:47:57;2.88;;;2.78;;
26820;SDS011;37186;51.394;5.454;2023-07-31T02:50:58;3.00;;;2.90;;
26820;SDS011;37186;51.394;5.454;2023-07-31T02:53:58;3.08;;;2.97;;
26820;SDS011;37186;51.394;5.454;2023-07-31T02:56:59;2.78;;;2.70;;
26820;SDS011;37186;51.394;5.454;2023-07-31T02:59:59;2.72;;;2.70;;
26820;SDS011;37186;51.394;5.454;2023-07-31T03:03:00;2.75;;;2.72;;
26820;SDS011;37186;51.394;5.454;2023-07-31T03:06:00;2.70;;;2.60;;
26820;SDS011;37186;51.394;5.454;2023-07-31T03:09:01;2.90;;;2.80;;
26820;SDS011;37186;51.394;5.454;2023-07-31T03:12:02;2.60;;;2.60;;
26820;SDS011;37186;51.394;5.454;2023-07-31T03:15:03;2.72;;;2.70;;
26820;SDS011;37186;51.394;5.454;2023-07-31T03:18:04;2.60;;;2.60;;
26820;SDS011;37186;51.394;5.454;2023-07-31T03:21:04;2.53;;;2.53;;
26820;SDS011;37186;51.394;5.454;2023-07-31T03:24:05;2.50;;;2.50;;
26820;SDS011;37186;51.394;5.454;2023-07-31T03:27:05;2.60;;;2.60;;
26820;SDS011;37186;51.394;5.454;2023-07-31T03:30:06;2.58;;;2.58;;
26820;SDS011;37186;51.394;5.454;2023-07-31T03:33:07;2.60;;;2.60;;
26820;SDS011;37186;51.394;5.454;2023-07-31T03:36:08;2.90;;;2.80;;
26820;SDS011;37186;51.394;5.454;2023-07-31T03:39:08;2.85;;;2.75;;
26820;SDS011;37186;51.394;5.454;2023-07-31T03:42:09;2.80;;;2.70;;
26820;SDS011;37186;51.394;5.454;2023-07-31T03:45:09;2.50;;;2.50;;
26820;SDS011;37186;51.394;5.454;2023-07-31T03:48:10;2.67;;;2.63;;
26820;SDS011;37186;51.394;5.454;2023-07-31T03:51:11;2.90;;;2.80;;
26820;SDS011;37186;51.394;5.454;2023-07-31T03:54:11;2.50;;;2.50;;
26820;SDS011;37186;51.394;5.454;2023-07-31T03:57:13;2.50;;;2.50;;
26820;SDS011;37186;51.394;5.454;2023-07-31T04:00:13;2.53;;;2.53;;
26820;SDS011;37186;51.394;5.454;2023-07-31T04:03:14;2.60;;;2.60;;
26820;SDS011;37186;51.394;5.454;2023-07-31T04:06:22;2.60;;;2.60;;
26820;SDS011;37186;51.394;5.454;2023-07-31T04:09:23;2.58;;;2.58;;
26820;SDS011;37186;51.394;5.454;2023-07-31T04:12:24;2.50;;;2.50;;
26820;SDS011;37186;51.394;5.454;2023-07-31T04:15:24;2.60;;;2.60;;
26820;SDS011;37186;51.394;5.454;2023-07-31T04:18:25;2.53;;;2.53;;
26820;SDS011;37186;51.394;5.454;2023-07-31T04:21:26;2.60;;;2.60;;
26820;SDS011;37186;51.394;5.454;2023-07-31T04:24:26;2.85;;;2.75;;
26820;SDS011;37186;51.394;5.454;2023-07-31T04:27:27;2.65;;;2.65;;
26820;SDS011;37186;51.394;5.454;2023-07-31T04:30:27;2.58;;;2.58;;
26820;SDS011;37186;51.394;5.454;2023-07-31T04:33:28;2.83;;;2.72;;
26820;SDS011;37186;51.394;5.454;2023-07-31T04:36:28;3.00;;;2.90;;
26820;SDS011;37186;51.394;5.454;2023-07-31T04:39:29;2.90;;;2.80;;
26820;SDS011;37186;51.394;5.454;2023-07-31T04:42:30;2.90;;;2.80;;
26820;SDS011;37186;51.394;5.454;2023-07-31T04:45:30;2.90;;;2.80;;
26820;SDS011;37186;51.394;5.454;2023-07-31T04:48:31;2.90;;;2.80;;
26820;SDS011;37186;51.394;5.454;2023-07-31T04:51:31;2.80;;;2.70;;
26820;SDS011;37186;51.394;5.454;2023-07-31T04:54:32;2.85;;;2.75;;
26820;SDS011;37186;51.394;5.454;2023-07-31T04:57:32;2.67;;;2.67;;
26820;SDS011;37186;51.394;5.454;2023-07-31T05:00:33;2.60;;;2.60;;
26820;SDS011;37186;51.394;5.454;2023-07-31T05:03:33;2.90;;;2.80;;
26820;SDS011;37186;51.394;5.454;2023-07-31T05:06:34;2.83;;;2.72;;
26820;SDS011;37186;51.394;5.454;2023-07-31T05:09:35;2.55;;;2.55;;
26820;SDS011;37186;51.394;5.454;2023-07-31T05:12:35;2.83;;;2.75;;
26820;SDS011;37186;51.394;5.454;2023-07-31T05:15:36;2.72;;;2.70;;
26820;SDS011;37186;51.394;5.454;2023-07-31T05:18:36;2.60;;;2.60;;
26820;SDS011;37186;51.394;5.454;2023-07-31T05:21:37;3.10;;;3.00;;
26820;SDS011;37186;51.394;5.454;2023-07-31T05:24:37;3.15;;;3.05;;
26820;SDS011;37186;51.394;5.454;2023-07-31T05:27:38;3.17;;;3.08;;
26820;SDS011;37186;51.394;5.454;2023-07-31T05:30:38;2.83;;;2.75;;
26820;SDS011;37186;51.394;5.454;2023-07-31T05:33:39;2.95;;;2.85;;
26820;SDS011;37186;51.394;5.454;2023-07-31T05:36:40;2.85;;;2.78;;
26820;SDS011;37186;51.394;5.454;2023-07-31T05:39:40;2.85;;;2.75;;
26820;SDS011;37186;51.394;5.454;2023-07-31T05:42:41;2.80;;;2.72;;
26820;SDS011;37186;51.394;5.454;2023-07-31T05:45:42;3.05;;;2.95;;
26820;SDS011;37186;51.394;5.454;2023-07-31T05:48:42;3.15;;;3.05;;
26820;SDS011;37186;51.394;5.454;2023-07-31T05:51:43;3.22;;;3.13;;
26820;SDS011;37186;51.394;5.454;2023-07-31T05:54:43;3.00;;;2.90;;
26820;SDS011;37186;51.394;5.454;2023-07-31T05:57:45;3.00;;;2.90;;
26820;SDS011;37186;51.394;5.454;2023-07-31T06:00:46;2.83;;;2.75;;
26820;SDS011;37186;51.394;5.454;2023-07-31T06:03:47;2.95;;;2.85;;
26820;SDS011;37186;51.394;5.454;2023-07-31T06:06:47;3.05;;;2.95;;
26820;SDS011;37186;51.394;5.454;2023-07-31T06:09:48;2.97;;;2.88;;
26820;SDS011;37186;51.394;5.454;2023-07-31T06:12:49;2.80;;;2.72;;
26820;SDS011;37186;51.394;5.454;2023-07-31T06:15:49;2.60;;;2.60;;
26820;SDS011;37186;51.394;5.454;2023-07-31T06:18:50;2.63;;;2.60;;
26820;SDS011;37186;51.394;5.454;2023-07-31T06:21:51;2.90;;;2.80;;
26820;SDS011;37186;51.394;5.454;2023-07-31T06:24:52;2.95;;;2.85;;
26820;SDS011;37186;51.394;5.454;2023-07-31T06:27:52;2.90;;;2.80;;
26820;SDS011;37186;51.394;5.454;2023-07-31T06:30:53;3.15;;;3.05;;
26820;SDS011;37186;51.394;5.454;2023-07-31T06:33:53;3.00;;;2.90;;
26820;SDS011;37186;51.394;5.454;2023-07-31T06:36:55;3.30;;;3.20;;
26820;SDS011;37186;51.394;5.454;2023-07-31T06:39:56;3.30;;;3.20;;
26820;SDS011;37186;51.394;5.454;2023-07-31T06:42:56;3.60;;;3.50;;
26820;SDS011;37186;51.394;5.454;2023-07-31T06:45:57;3.40;;;3.30;;
26820;SDS011;37186;51.394;5.454;2023-07-31T06:48:57;3.55;;;3.45;;
26820;SDS011;37186;51.394;5.454;2023-07-31T06:51:58;3.70;;;3.60;;
26820;SDS011;37186;51.394;5.454;2023-07-31T06:55:17;3.58;;;3.47;;
26820;SDS011;37186;51.394;5.454;2023-07-31T06:58:22;2.55;;;2.55;;
26820;SDS011;37186;51.394;5.454;2023-07-31T07:01:22;2.53;;;2.53;;
26820;SDS011;37186;51.394;5.454;2023-07-31T07:04:23;2.60;;;2.60;;
26820;SDS011;37186;51.394;5.454;2023-07-31T07:07:23;2.50;;;2.50;;
26820;SDS011;37186;51.394;5.454;2023-07-31T07:10:24;2.60;;;2.60;;
26820;SDS011;37186;51.394;5.454;2023-07-31T07:13:24;2.65;;;2.65;;
26820;SDS011;37186;51.394;5.454;2023-07-31T07:16:25;2.85;;;2.75;;
26820;SDS011;37186;51.394;5.454;2023-07-31T07:19:25;2.80;;;2.70;;
26820;SDS011;37186;51.394;5.454;2023-07-31T07:22:26;2.40;;;2.40;;
26820;SDS011;37186;51.394;5.454;2023-07-31T07:25:27;2.35;;;2.35;;
26820;SDS011;37186;51.394;5.454;2023-07-31T07:28:27;2.58;;;2.58;;
26820;SDS011;37186;51.394;5.454;2023-07-31T07:31:28;2.67;;;2.65;;
26820;SDS011;37186;51.394;5.454;2023-07-31T07:34:29;2.60;;;2.60;;
26820;SDS011;37186;51.394;5.454;2023-07-31T07:37:29;2.50;;;2.50;;
26820;SDS011;37186;51.394;5.454;2023-07-31T07:40:30;2.60;;;2.60;;
26820;SDS011;37186;51.394;5.454;2023-07-31T07:43:30;2.40;;;2.40;;
26820;SDS011;37186;51.394;5.454;2023-07-31T07:46:31;2.50;;;2.50;;
26820;SDS011;37186;51.394;5.454;2023-07-31T07:49:32;2.42;;;2.42;;
26820;SDS011;37186;51.394;5.454;2023-07-31T07:52:36;2.50;;;2.50;;
26820;SDS011;37186;51.394;5.454;2023-07-31T07:55:36;2.40;;;2.40;;
26820;SDS011;37186;51.394;5.454;2023-07-31T07:58:37;2.47;;;2.47;;
26820;SDS011;37186;51.394;5.454;2023-07-31T08:01:37;2.50;;;2.50;;
26820;SDS011;37186;51.394;5.454;2023-07-31T08:04:38;2.40;;;2.40;;
26820;SDS011;37186;51.394;5.454;2023-07-31T08:07:38;2.58;;;2.58;;
26820;SDS011;37186;51.394;5.454;2023-07-31T08:10:39;2.70;;;2.65;;
26820;SDS011;37186;51.394;5.454;2023-07-31T08:13:39;2.63;;;2.63;;
26820;SDS011;37186;51.394;5.454;2023-07-31T08:16:40;2.45;;;2.45;;
26820;SDS011;37186;51.394;5.454;2023-07-31T08:19:40;2.40;;;2.40;;
26820;SDS011;37186;51.394;5.454;2023-07-31T08:22:41;2.53;;;2.53;;
26820;SDS011;37186;51.394;5.454;2023-07-31T08:25:42;2.75;;;2.65;;
26820;SDS011;37186;51.394;5.454;2023-07-31T08:28:42;2.67;;;2.65;;
26820;SDS011;37186;51.394;5.454;2023-07-31T08:31:43;2.67;;;2.65;;
26820;SDS011;37186;51.394;5.454;2023-07-31T08:34:43;2.80;;;2.70;;
26820;SDS011;37186;51.394;5.454;2023-07-31T08:37:44;2.55;;;2.55;;
26820;SDS011;37186;51.394;5.454;2023-07-31T08:40:45;2.88;;;2.78;;
26820;SDS011;37186;51.394;5.454;2023-07-31T08:43:45;2.70;;;2.70;;
26820;SDS011;37186;51.394;5.454;2023-07-31T08:46:46;2.60;;;2.60;;
26820;SDS011;37186;51.394;5.454;2023-07-31T08:49:48;2.70;;;2.70;;
26820;SDS011;37186;51.394;5.454;2023-07-31T08:52:50;2.90;;;2.80;;
26820;SDS011;37186;51.394;5.454;2023-07-31T08:55:52;3.00;;;2.90;;
26820;SDS011;37186;51.394;5.454;2023-07-31T08:58:54;2.60;;;2.60;;
26820;SDS011;37186;51.394;5.454;2023-07-31T09:01:55;2.90;;;2.80;;
26820;SDS011;37186;51.394;5.454;2023-07-31T09:05:00;2.90;;;2.80;;
26820;SDS011;37186;51.394;5.454;2023-07-31T09:08:02;2.88;;;2.78;;
26820;SDS011;37186;51.394;5.454;2023-07-31T09:11:05;2.80;;;2.70;;
26820;SDS011;37186;51.394;5.454;2023-07-31T09:14:05;3.00;;;2.90;;
26820;SDS011;37186;51.394;5.454;2023-07-31T09:17:08;3.00;;;2.90;;
26820;SDS011;37186;51.394;5.454;2023-07-31T09:23:17;2.90;;;2.80;;
26820;SDS011;37186;51.394;5.454;2023-07-31T09:26:30;2.90;;;2.80;;
26820;SDS011;37186;51.394;5.454;2023-07-31T09:29:35;2.90;;;2.80;;
26820;SDS011;37186;51.394;5.454;2023-07-31T09:32:36;2.60;;;2.60;;
26820;SDS011;37186;51.394;5.454;2023-07-31T09:35:37;2.50;;;2.50;;
26820;SDS011;37186;51.394;5.454;2023-07-31T09:38:40;2.40;;;2.40;;
26820;SDS011;37186;51.394;5.454;2023-07-31T09:41:44;2.30;;;2.30;;
26820;SDS011;37186;51.394;5.454;2023-07-31T09:44:47;2.40;;;2.40;;
26820;SDS011;37186;51.394;5.454;2023-07-31T09:47:48;2.35;;;2.35;;
26820;SDS011;37186;51.394;5.454;2023-07-31T09:50:49;2.50;;;2.50;;
26820;SDS011;37186;51.394;5.454;2023-07-31T09:53:50;2.35;;;2.35;;
26820;SDS011;37186;51.394;5.454;2023-07-31T09:56:50;2.50;;;2.50;;
26820;SDS011;37186;51.394;5.454;2023-07-31T09:59:52;2.50;;;2.50;;
26820;SDS011;37186;51.394;5.454;2023-07-31T10:02:53;2.50;;;2.50;;
26820;SDS011;37186;51.394;5.454;2023-07-31T10:05:58;2.50;;;2.50;;
26820;SDS011;37186;51.394;5.454;2023-07-31T10:09:00;2.40;;;2.40;;
26820;SDS011;37186;51.394;5.454;2023-07-31T10:12:03;2.55;;;2.55;;
26820;SDS011;37186;51.394;5.454;2023-07-31T10:15:09;2.50;;;2.50;;
26820;SDS011;37186;51.394;5.454;2023-07-31T10:18:11;2.50;;;2.50;;
26820;SDS011;37186;51.394;5.454;2023-07-31T10:21:12;2.45;;;2.45;;
26820;SDS011;37186;51.394;5.454;2023-07-31T10:24:14;2.42;;;2.42;;
26820;SDS011;37186;51.394;5.454;2023-07-31T10:27:16;2.30;;;2.30;;
26820;SDS011;37186;51.394;5.454;2023-07-31T10:30:17;2.58;;;2.58;;
26820;SDS011;37186;51.394;5.454;2023-07-31T10:33:19;2.47;;;2.47;;
26820;SDS011;37186;51.394;5.454;2023-07-31T10:36:20;2.38;;;2.38;;
26820;SDS011;37186;51.394;5.454;2023-07-31T10:39:34;2.40;;;2.40;;
26820;SDS011;37186;51.394;5.454;2023-07-31T10:42:36;2.50;;;2.50;;
26820;SDS011;37186;51.394;5.454;2023-07-31T10:45:44;2.55;;;2.55;;
26820;SDS011;37186;51.394;5.454;2023-07-31T10:48:44;2.92;;;2.83;;
26820;SDS011;37186;51.394;5.454;2023-07-31T10:51:46;3.00;;;2.90;;
26820;SDS011;37186;51.394;5.454;2023-07-31T10:54:48;3.10;;;3.00;;
26820;SDS011;37186;51.394;5.454;2023-07-31T10:57:49;3.15;;;3.05;;
26820;SDS011;37186;51.394;5.454;2023-07-31T11:00:51;2.97;;;2.88;;
26820;SDS011;37186;51.394;5.454;2023-07-31T11:03:56;3.13;;;3.03;;
26820;SDS011;37186;51.394;5.454;2023-07-31T11:07:01;3.20;;;3.10;;
26820;SDS011;37186;51.394;5.454;2023-07-31T11:10:03;3.50;;;3.40;;
26820;SDS011;37186;51.394;5.454;2023-07-31T11:13:04;3.30;;;3.20;;
26820;SDS011;37186;51.394;5.454;2023-07-31T11:16:05;3.53;;;3.42;;
26820;SDS011;37186;51.394;5.454;2023-07-31T11:19:08;3.20;;;3.10;;
26820;SDS011;37186;51.394;5.454;2023-07-31T11:22:08;3.10;;;3.00;;
26820;SDS011;37186;51.394;5.454;2023-07-31T11:25:09;3.13;;;3.03;;
26820;SDS011;37186;51.394;5.454;2023-07-31T11:28:12;3.05;;;2.95;;
26820;SDS011;37186;51.394;5.454;2023-07-31T11:31:13;3.10;;;3.00;;
26820;SDS011;37186;51.394;5.454;2023-07-31T11:34:14;3.10;;;3.00;;
26820;SDS011;37186;51.394;5.454;2023-07-31T11:37:15;3.15;;;3.05;;
26820;SDS011;37186;51.394;5.454;2023-07-31T11:40:16;3.00;;;2.90;;
26820;SDS011;37186;51.394;5.454;2023-07-31T11:43:17;2.80;;;2.70;;
26820;SDS011;37186;51.394;5.454;2023-07-31T11:46:18;2.95;;;2.85;;
26820;SDS011;37186;51.394;5.454;2023-07-31T11:49:19;2.90;;;2.80;;
26820;SDS011;37186;51.394;5.454;2023-07-31T11:52:20;2.83;;;2.72;;
26820;SDS011;37186;51.394;5.454;2023-07-31T11:55:23;3.05;;;2.95;;
26820;SDS011;37186;51.394;5.454;2023-07-31T11:58:24;3.22;;;3.13;;
26820;SDS011;37186;51.394;5.454;2023-07-31T12:01:26;3.08;;;2.97;;
26820;SDS011;37186;51.394;5.454;2023-07-31T12:04:27;3.00;;;2.90;;
26820;SDS011;37186;51.394;5.454;2023-07-31T12:07:42;3.10;;;3.00;;
26820;SDS011;37186;51.394;5.454;2023-07-31T12:10:46;3.00;;;2.90;;
26820;SDS011;37186;51.394;5.454;2023-07-31T12:13:47;3.05;;;2.95;;
26820;SDS011;37186;51.394;5.454;2023-07-31T12:16:48;3.50;;;3.40;;
26820;SDS011;37186;51.394;5.454;2023-07-31T12:19:57;3.67;;;3.58;;
26820;SDS011;37186;51.394;5.454;2023-07-31T12:22:57;3.20;;;3.10;;
26820;SDS011;37186;51.394;5.454;2023-07-31T12:26:14;3.35;;;3.25;;
26820;SDS011;37186;51.394;5.454;2023-07-31T12:29:16;3.70;;;3.60;;
26820;SDS011;37186;51.394;5.454;2023-07-31T12:32:22;3.30;;;3.20;;
26820;SDS011;37186;51.394;5.454;2023-07-31T12:35:25;3.67;;;3.58;;
26820;SDS011;37186;51.394;5.454;2023-07-31T12:38:34;3.90;;;3.80;;
26820;SDS011;37186;51.394;5.454;2023-07-31T12:41:35;3.90;;;3.80;;
26820;SDS011;37186;51.394;5.454;2023-07-31T12:44:35;4.15;;;4.05;;
26820;SDS011;37186;51.394;5.454;2023-07-31T12:47:36;4.18;;;4.07;;
26820;SDS011;37186;51.394;5.454;2023-07-31T12:50:36;3.97;;;3.88;;
26820;SDS011;37186;51.394;5.454;2023-07-31T12:53:37;3.72;;;3.63;;
26820;SDS011;37186;51.394;5.454;2023-07-31T12:56:37;3.95;;;3.85;;
26820;SDS011;37186;51.394;5.454;2023-07-31T12:59:38;3.80;;;3.70;;
26820;SDS011;37186;51.394;5.454;2023-07-31T13:02:38;4.03;;;3.92;;
26820;SDS011;37186;51.394;5.454;2023-07-31T13:05:39;3.97;;;3.88;;
26820;SDS011;37186;51.394;5.454;2023-07-31T13:08:40;3.65;;;3.55;;
26820;SDS011;37186;51.394;5.454;2023-07-31T13:11:40;3.97;;;3.88;;
26820;SDS011;37186;51.394;5.454;2023-07-31T13:14:41;3.40;;;3.30;;
26820;SDS011;37186;51.394;5.454;2023-07-31T13:17:41;3.28;;;3.17;;
26820;SDS011;37186;51.394;5.454;2023-07-31T13:20:42;3.70;;;3.60;;
26820;SDS011;37186;51.394;5.454;2023-07-31T13:23:42;3.38;;;3.28;;
26820;SDS011;37186;51.394;5.454;2023-07-31T13:26:43;3.50;;;3.40;;
26820;SDS011;37186;51.394;5.454;2023-07-31T13:29:44;3.63;;;3.53;;
26820;SDS011;37186;51.394;5.454;2023-07-31T13:32:45;3.45;;;3.35;;
26820;SDS011;37186;51.394;5.454;2023-07-31T13:35:45;3.28;;;3.17;;
26820;SDS011;37186;51.394;5.454;2023-07-31T13:38:46;3.65;;;3.55;;
26820;SDS011;37186;51.394;5.454;2023-07-31T13:41:46;3.30;;;3.20;;
26820;SDS011;37186;51.394;5.454;2023-07-31T13:44:47;3.42;;;3.33;;
26820;SDS011;37186;51.394;5.454;2023-07-31T13:47:48;3.38;;;3.28;;
26820;SDS011;37186;51.394;5.454;2023-07-31T13:50:49;3.40;;;3.30;;
26820;SDS011;37186;51.394;5.454;2023-07-31T13:53:50;3.33;;;3.22;;
26820;SDS011;37186;51.394;5.454;2023-07-31T13:56:50;3.40;;;3.30;;
26820;SDS011;37186;51.394;5.454;2023-07-31T13:59:52;3.53;;;3.42;;
26820;SDS011;37186;51.394;5.454;2023-07-31T14:02:52;3.30;;;3.20;;
26820;SDS011;37186;51.394;5.454;2023-07-31T14:05:53;3.72;;;3.63;;
26820;SDS011;37186;51.394;5.454;2023-07-31T14:08:55;3.70;;;3.60;;
26820;SDS011;37186;51.394;5.454;2023-07-31T14:11:55;3.65;;;3.55;;
26820;SDS011;37186;51.394;5.454;2023-07-31T14:14:56;3.58;;;3.47;;
26820;SDS011;37186;51.394;5.454;2023-07-31T14:17:57;3.88;;;3.78;;
26820;SDS011;37186;51.394;5.454;2023-07-31T14:20:57;3.78;;;3.67;;
26820;SDS011;37186;51.394;5.454;2023-07-31T14:23:58;3.83;;;3.72;;
26820;SDS011;37186;51.394;5.454;2023-07-31T14:26:58;4.18;;;4.07;;
26820;SDS011;37186;51.394;5.454;2023-07-31T14:29:59;3.90;;;3.80;;
26820;SDS011;37186;51.394;5.454;2023-07-31T14:33:00;4.20;;;4.10;;
26820;SDS011;37186;51.394;5.454;2023-07-31T14:36:02;4.47;;;4.38;;
26820;SDS011;37186;51.394;5.454;2023-07-31T14:39:03;4.30;;;4.20;;
26820;SDS011;37186;51.394;5.454;2023-07-31T14:42:03;4.10;;;4.00;;
26820;SDS011;37186;51.394;5.454;2023-07-31T14:45:04;3.88;;;3.78;;
26820;SDS011;37186;51.394;5.454;2023-07-31T14:48:06;4.00;;;3.90;;
26820;SDS011;37186;51.394;5.454;2023-07-31T14:51:06;4.20;;;4.10;;
26820;SDS011;37186;51.394;5.454;2023-07-31T14:54:07;4.20;;;4.10;;
26820;SDS011;37186;51.394;5.454;2023-07-31T14:57:08;3.85;;;3.75;;
26820;SDS011;37186;51.394;5.454;2023-07-31T15:00:09;3.80;;;3.70;;
26820;SDS011;37186;51.394;5.454;2023-07-31T15:03:10;3.85;;;3.75;;
26820;SDS011;37186;51.394;5.454;2023-07-31T15:06:11;3.97;;;3.88;;
26820;SDS011;37186;51.394;5.454;2023-07-31T15:09:12;3.63;;;3.53;;
26820;SDS011;37186;51.394;5.454;2023-07-31T15:12:13;3.58;;;3.47;;
26820;SDS011;37186;51.394;5.454;2023-07-31T15:15:14;3.55;;;3.45;;
26820;SDS011;37186;51.394;5.454;2023-07-31T15:18:15;3.50;;;3.40;;
26820;SDS011;37186;51.394;5.454;2023-07-31T15:21:16;3.45;;;3.35;;
26820;SDS011;37186;51.394;5.454;2023-07-31T15:24:16;3.60;;;3.50;;
26820;SDS011;37186;51.394;5.454;2023-07-31T15:27:17;3.58;;;3.47;;
26820;SDS011;37186;51.394;5.454;2023-07-31T15:30:17;3.40;;;3.30;;
26820;SDS011;37186;51.394;5.454;2023-07-31T15:33:18;3.30;;;3.20;;
26820;SDS011;37186;51.394;5.454;2023-07-31T15:36:19;3.40;;;3.30;;
26820;SDS011;37186;51.394;5.454;2023-07-31T15:39:19;3.28;;;3.17;;
26820;SDS011;37186;51.394;5.454;2023-07-31T15:42:20;3.20;;;3.10;;
26820;SDS011;37186;51.394;5.454;2023-07-31T15:45:20;3.47;;;3.38;;
26820;SDS011;37186;51.394;5.454;2023-07-31T15:48:21;3.50;;;3.40;;
26820;SDS011;37186;51.394;5.454;2023-07-31T15:51:22;3.40;;;3.30;;
26820;SDS011;37186;51.394;5.454;2023-07-31T15:54:23;3.53;;;3.42;;
26820;SDS011;37186;51.394;5.454;2023-07-31T15:57:24;3.40;;;3.30;;
26820;SDS011;37186;51.394;5.454;2023-07-31T16:00:24;3.30;;;3.20;;
26820;SDS011;37186;51.394;5.454;2023-07-31T16:03:25;3.30;;;3.20;;
26820;SDS011;37186;51.394;5.454;2023-07-31T16:06:26;3.30;;;3.20;;
26820;SDS011;37186;51.394;5.454;2023-07-31T16:09:27;3.55;;;3.45;;
26820;SDS011;37186;51.394;5.454;2023-07-31T16:12:28;3.53;;;3.42;;
26820;SDS011;37186;51.394;5.454;2023-07-31T16:15:28;3.65;;;3.55;;
26820;SDS011;37186;51.394;5.454;2023-07-31T16:18:29;3.70;;;3.60;;
26820;SDS011;37186;51.394;5.454;2023-07-31T16:21:30;3.42;;;3.33;;
26820;SDS011;37186;51.394;5.454;2023-07-31T16:24:30;3.30;;;3.20;;
26820;SDS011;37186;51.394;5.454;2023-07-31T16:27:31;3.17;;;3.08;;
26820;SDS011;37186;51.394;5.454;2023-07-31T16:30:31;3.20;;;3.10;;
26820;SDS011;37186;51.394;5.454;2023-07-31T16:33:32;3.20;;;3.10;;
26820;SDS011;37186;51.394;5.454;2023-07-31T16:36:33;3.10;;;3.00;;
26820;SDS011;37186;51.394;5.454;2023-07-31T16:39:33;3.22;;;3.13;;
26820;SDS011;37186;51.394;5.454;2023-07-31T16:42:36;3.20;;;3.10;;
26820;SDS011;37186;51.394;5.454;2023-07-31T16:45:36;3.20;;;3.10;;
26820;SDS011;37186;51.394;5.454;2023-07-31T16:48:37;3.08;;;2.97;;
26820;SDS011;37186;51.394;5.454;2023-07-31T16:51:37;3.22;;;3.13;;
26820;SDS011;37186;51.394;5.454;2023-07-31T16:54:38;3.50;;;3.40;;
26820;SDS011;37186;51.394;5.454;2023-07-31T16:57:38;3.40;;;3.30;;
26820;SDS011;37186;51.394;5.454;2023-07-31T17:00:39;3.50;;;3.40;;
26820;SDS011;37186;51.394;5.454;2023-07-31T17:03:40;3.60;;;3.50;;
26820;SDS011;37186;51.394;5.454;2023-07-31T17:06:40;3.35;;;3.25;;
26820;SDS011;37186;51.394;5.454;2023-07-31T17:09:41;3.40;;;3.30;;
26820;SDS011;37186;51.394;5.454;2023-07-31T17:12:41;3.30;;;3.20;;
26820;SDS011;37186;51.394;5.454;2023-07-31T17:15:42;3.30;;;3.20;;
26820;SDS011;37186;51.394;5.454;2023-07-31T17:18:43;3.10;;;3.00;;
26820;SDS011;37186;51.394;5.454;2023-07-31T17:21:43;3.00;;;2.90;;
26820;SDS011;37186;51.394;5.454;2023-07-31T17:24:44;3.20;;;3.10;;
26820;SDS011;37186;51.394;5.454;2023-07-31T17:27:44;3.20;;;3.10;;
26820;SDS011;37186;51.394;5.454;2023-07-31T17:30:45;3.13;;;3.03;;
26820;SDS011;37186;51.394;5.454;2023-07-31T17:33:47;3.10;;;3.00;;
26820;SDS011;37186;51.394;5.454;2023-07-31T17:36:48;3.00;;;2.90;;
26820;SDS011;37186;51.394;5.454;2023-07-31T17:39:49;2.90;;;2.80;;
26820;SDS011;37186;51.394;5.454;2023-07-31T17:42:49;2.90;;;2.80;;
26820;SDS011;37186;51.394;5.454;2023-07-31T17:45:50;2.90;;;2.80;;
26820;SDS011;37186;51.394;5.454;2023-07-31T17:48:51;2.80;;;2.70;;
26820;SDS011;37186;51.394;5.454;2023-07-31T17:51:52;2.92;;;2.83;;
26820;SDS011;37186;51.394;5.454;2023-07-31T17:54:53;2.80;;;2.70;;
26820;SDS011;37186;51.394;5.454;2023-07-31T17:57:54;2.90;;;2.80;;
26820;SDS011;37186;51.394;5.454;2023-07-31T18:00:54;3.10;;;3.00;;
26820;SDS011;37186;51.394;5.454;2023-07-31T18:03:55;3.00;;;2.90;;
26820;SDS011;37186;51.394;5.454;2023-07-31T18:06:55;3.00;;;2.90;;
26820;SDS011;37186;51.394;5.454;2023-07-31T18:09:56;3.05;;;2.95;;
26820;SDS011;37186;51.394;5.454;2023-07-31T18:12:56;3.03;;;2.92;;
26820;SDS011;37186;51.394;5.454;2023-07-31T18:15:57;2.88;;;2.78;;
26820;SDS011;37186;51.394;5.454;2023-07-31T18:18:58;3.10;;;3.00;;
26820;SDS011;37186;51.394;5.454;2023-07-31T18:21:58;3.13;;;3.03;;
26820;SDS011;37186;51.394;5.454;2023-07-31T18:24:59;3.30;;;3.20;;